SBPP/PMG METAR and TAF weather

Enter ICAO airport designator
Station Type Date Time Source
SBPP METAR 2022/06/27 22:25 UTC NOAA

SBPP 272225Z 03004KT CAVOK 18/16 Q1015


Station Type Date Time Source
SBPP Decoded METAR 2022/06/27 22:25 UTC NOAA

Ponta Pora Intl , Brazil (SBPP) 22-33S 055-42W
Jun 27, 2022 - 06:25 PM EDT / 2022.06.27 2225 UTC
Wind: from the NNE (030 degrees) at 5 MPH (4 KT):0
Visibility: greater than 7 mile(s):0
Temperature: 64 F (18 C)
Dew Point: 60 F (16 C)
Relative Humidity: 88%
Pressure (altimeter): 29.97 in. Hg (1015 hPa)
ob: SBPP 272225Z 03004KT CAVOK 18/16 Q1015
cycle: 22

Station Type Date Time Source
SBPP TAF 2022/06/28 12:09 UTC NOAA

TAF SBPP 280800Z 2812/2912 03008KT CAVOK TX27/2818Z TN14/2909Z
BECMG 2814/2816 29010KT
BECMG 2821/2823 21005KT SCT015
BECMG 2905/2907 BKN015
RMK PGF

Example: see airport list